Time;durP1;ratioP1;P1;durP2;ratioP2;P2;SDS_P1;SDS_P2;PMS_P1;PMS_P2;Temp;Humidity;BMP_temperature;BMP_pressure;BME280_temperature;BME280_humidity;BME280_pressure;Samples;Min_cycle;Max_cycle;Signal;HPM_P1;HPM_P2
2022/07/10 00:01:00;;;;;;;1.27;1.08;;;26.80;53.80;;;;;;10975638;32;20303;-70
2022/07/10 00:07:03;;;;;;;1.10;0.65;;;26.60;54.00;;;;;;10975447;32;20120;-70
2022/07/10 00:13:06;;;;;;;1.35;0.60;;;26.60;54.10;;;;;;10975415;32;20391;-70
2022/07/10 00:19:08;;;;;;;0.62;0.62;;;26.70;54.20;;;;;;10961921;32;20030;-69
2022/07/10 00:25:12;;;;;;;3.62;1.08;;;26.70;54.20;;;;;;10980052;32;20031;-69
2022/07/10 00:31:15;;;;;;;1.77;0.82;;;26.60;54.40;;;;;;10983116;32;20057;-70
2022/07/10 00:37:18;;;;;;;1.20;0.82;;;26.50;54.70;;;;;;10982937;32;20025;-69
2022/07/10 00:43:20;;;;;;;2.12;1.15;;;26.30;54.70;;;;;;10982629;32;20345;-69
2022/07/10 00:49:22;;;;;;;1.15;0.85;;;26.20;54.90;;;;;;10982146;32;20026;-69
2022/07/10 00:55:24;;;;;;;1.33;0.60;;;26.20;55.00;;;;;;10968626;32;20027;-69
2022/07/10 01:01:27;;;;;;;0.88;0.65;;;26.20;55.00;;;;;;10982100;32;20045;-69
2022/07/10 01:07:31;;;;;;;0.98;0.57;;;26.10;55.00;;;;;;10981662;32;20111;-69
2022/07/10 01:13:33;;;;;;;0.90;0.70;;;26.00;55.10;;;;;;10981506;32;20045;-69
2022/07/10 01:19:35;;;;;;;0.45;0.43;;;25.90;55.10;;;;;;10981209;32;20027;-68
2022/07/10 01:25:37;;;;;;;0.77;0.65;;;25.90;55.20;;;;;;10967528;32;20291;-69
2022/07/10 01:31:40;;;;;;;1.23;0.82;;;25.80;55.30;;;;;;10967300;32;20088;-68
2022/07/10 01:37:42;;;;;;;1.65;0.88;;;25.60;55.20;;;;;;10980032;32;20037;-68
2022/07/10 01:43:44;;;;;;;2.00;0.75;;;25.50;55.00;;;;;;10980404;32;20019;-67
2022/07/10 01:49:48;;;;;;;5.37;1.02;;;25.40;55.00;;;;;;10980102;32;20018;-68
2022/07/10 01:55:50;;;;;;;3.87;1.20;;;25.30;54.60;;;;;;10979910;32;20088;-68
2022/07/10 02:01:52;;;;;;;1.27;0.68;;;25.30;54.60;;;;;;10979619;32;20053;-68
2022/07/10 02:07:54;;;;;;;1.02;0.88;;;25.30;54.40;;;;;;10979369;32;20057;-67
2022/07/10 02:13:57;;;;;;;1.45;0.85;;;25.20;54.70;;;;;;10979174;32;20292;-68
2022/07/10 02:20:00;;;;;;;1.12;0.68;;;25.20;54.80;;;;;;10978979;32;20062;-68
2022/07/10 02:26:02;;;;;;;1.48;0.90;;;25.20;55.00;;;;;;10978983;32;20026;-69
2022/07/10 02:32:05;;;;;;;0.75;0.60;;;25.20;55.10;;;;;;10978767;32;20041;-69
2022/07/10 02:38:07;;;;;;;4.78;0.98;;;25.30;55.20;;;;;;10965025;32;20014;-69
2022/07/10 02:44:09;;;;;;;1.27;1.05;;;25.50;55.20;;;;;;10964668;32;20100;-69
2022/07/10 02:50:11;;;;;;;0.52;0.52;;;25.50;55.40;;;;;;10963679;32;20327;-69
2022/07/10 02:56:13;;;;;;;3.47;1.10;;;25.40;55.60;;;;;;10964242;32;20053;-69
2022/07/10 03:02:15;;;;;;;1.02;0.70;;;25.30;55.80;;;;;;10977806;32;20026;-69
2022/07/10 03:08:18;;;;;;;3.60;1.00;;;25.20;55.90;;;;;;10977483;32;20026;-69
2022/07/10 03:14:20;;;;;;;3.03;1.23;;;25.10;56.20;;;;;;10977507;32;20062;-69
2022/07/10 03:20:50;;;;;;;0.50;0.50;;;25.30;56.50;;;;;;10976904;32;20057;-69
2022/07/10 03:26:52;;;;;;;0.52;0.52;;;25.30;57.20;;;;;;10976982;32;20030;-69
2022/07/10 03:32:55;;;;;;;2.50;1.13;;;25.40;57.30;;;;;;8999241;32;63020645;-69
2022/07/10 03:38:57;;;;;;;2.55;1.23;;;25.40;57.00;;;;;;10896936;32;20310;-69
2022/07/10 03:45:00;;;;;;;2.22;1.27;;;25.30;57.10;;;;;;10885709;32;20336;-69
2022/07/10 03:51:02;;;;;;;6.12;1.55;;;25.30;56.90;;;;;;10896619;32;20061;-69
2022/07/10 04:03:25;;;;;;;2.75;1.60;;;25.10;56.90;;;;;;10930755;32;20342;-69
2022/07/10 04:09:27;;;;;;;3.58;1.52;;;25.10;56.80;;;;;;10975392;32;20339;-69
2022/07/10 04:15:29;;;;;;;3.25;1.70;;;24.90;57.40;;;;;;10961870;32;20014;-69
2022/07/10 04:21:32;;;;;;;2.45;1.87;;;24.80;57.60;;;;;;10975530;32;20076;-69
2022/07/10 04:27:34;;;;;;;3.42;1.67;;;24.90;57.50;;;;;;10980398;27;20292;-69
2022/07/10 04:33:36;;;;;;;4.97;2.83;;;24.90;57.50;;;;;;11013065;32;20026;-69
2022/07/10 04:39:39;;;;;;;4.20;2.15;;;24.80;57.70;;;;;;11012975;32;20053;-69
2022/07/10 04:45:56;;;;;;;2.70;1.52;;;24.80;57.80;;;;;;11012837;32;20044;-69
2022/07/10 04:51:59;;;;;;;3.50;1.48;;;24.80;57.70;;;;;;11012927;32;20018;-69
2022/07/10 04:58:01;;;;;;;3.00;1.70;;;24.90;57.80;;;;;;11012954;32;20017;-69
2022/07/10 05:04:04;;;;;;;2.75;1.40;;;25.00;57.40;;;;;;11012842;32;20330;-69
2022/07/10 05:10:06;;;;;;;1.83;1.05;;;25.20;57.30;;;;;;11014591;32;20022;-69
2022/07/10 05:16:09;;;;;;;1.92;1.48;;;25.30;57.00;;;;;;11019564;32;20045;-69
2022/07/10 05:22:11;;;;;;;3.95;1.48;;;25.30;57.10;;;;;;11019650;32;20022;-69
2022/07/10 05:28:14;;;;;;;2.30;1.42;;;25.30;57.10;;;;;;11019477;32;20397;-69
2022/07/10 05:34:16;;;;;;;2.58;1.40;;;25.30;57.00;;;;;;11018780;32;20026;-69
2022/07/10 05:40:18;;;;;;;2.83;1.75;;;25.30;57.10;;;;;;11018642;32;20052;-68
2022/07/10 05:46:21;;;;;;;1.95;1.20;;;25.40;57.00;;;;;;11018765;32;20022;-68
2022/07/10 05:52:23;;;;;;;5.50;2.12;;;25.60;56.80;;;;;;11018499;32;20030;-68
2022/07/10 05:58:25;;;;;;;4.87;1.80;;;25.80;56.70;;;;;;11018095;32;20037;-68
2022/07/10 06:04:28;;;;;;;2.35;1.02;;;25.90;56.50;;;;;;11017797;32;20031;-69
2022/07/10 06:10:30;;;;;;;2.10;1.27;;;26.10;56.40;;;;;;11006070;32;20111;-68
2022/07/10 06:16:33;;;;;;;1.52;0.98;;;26.20;56.30;;;;;;11003712;32;20048;-67
2022/07/10 06:22:35;;;;;;;4.35;1.30;;;26.30;55.80;;;;;;11016956;32;20163;-68
2022/07/10 06:28:39;;;;;;;2.47;1.87;;;26.40;55.90;;;;;;11016821;32;20053;-69
2022/07/10 06:34:41;;;;;;;2.22;1.15;;;26.50;55.70;;;;;;11016673;32;20383;-67
2022/07/10 06:40:45;;;;;;;2.55;1.45;;;26.60;55.20;;;;;;11016238;32;20029;-67
2022/07/10 06:47:55;;;;;;;1.67;1.45;;;26.70;55.00;;;;;;11016293;32;20026;-67
2022/07/10 06:53:09;;;;;;;2.87;1.77;;;26.70;54.10;;;;;;11016878;32;20398;-67
2022/07/10 06:59:11;;;;;;;1.58;1.05;;;26.60;52.80;;;;;;11015807;32;20176;-67
2022/07/10 07:05:14;;;;;;;2.92;1.73;;;26.70;52.60;;;;;;11003011;32;20017;-67
2022/07/10 07:11:16;;;;;;;5.55;1.08;;;26.70;51.70;;;;;;11001744;32;20057;-68
2022/07/10 07:17:22;;;;;;;3.40;0.93;;;26.80;51.70;;;;;;11001610;32;20023;-68
2022/07/10 07:23:24;;;;;;;1.85;1.05;;;27.00;51.20;;;;;;11006493;32;20060;-68
2022/07/10 07:29:26;;;;;;;1.55;0.93;;;27.20;50.90;;;;;;10963208;32;20018;-68
2022/07/10 07:35:28;;;;;;;1.02;0.95;;;27.30;49.80;;;;;;10976845;32;20031;-67
2022/07/10 07:41:31;;;;;;;1.00;0.85;;;27.50;49.40;;;;;;10978341;32;20035;-68
2022/07/10 07:47:46;;;;;;;2.10;1.15;;;27.60;47.90;;;;;;10977522;32;20044;-67
2022/07/10 07:53:48;;;;;;;0.82;0.75;;;27.80;44.60;;;;;;10978965;32;20366;-68
2022/07/10 07:59:51;;;;;;;1.23;0.62;;;27.80;44.40;;;;;;10977117;32;20023;-68
2022/07/10 08:05:53;;;;;;;1.35;0.70;;;27.80;42.70;;;;;;10976854;32;20026;-68
2022/07/10 08:11:55;;;;;;;0.80;0.60;;;27.90;42.80;;;;;;10975512;32;20045;-68
2022/07/10 08:17:59;;;;;;;1.20;0.80;;;28.10;42.90;;;;;;10977621;32;20330;-69
2022/07/10 08:24:01;;;;;;;3.37;1.02;;;28.30;41.30;;;;;;10975598;32;20014;-68
2022/07/10 08:30:04;;;;;;;0.90;0.60;;;28.30;41.20;;;;;;10975012;32;20034;-70
2022/07/10 08:36:06;;;;;;;2.65;1.92;;;28.30;40.90;;;;;;10975014;32;20041;-68
2022/07/10 08:42:10;;;;;;;1.75;0.93;;;28.60;40.80;;;;;;10976105;32;20026;-70
2022/07/10 08:48:13;;;;;;;1.12;0.70;;;28.80;40.70;;;;;;10981322;32;20027;-70
2022/07/10 08:54:17;;;;;;;1.58;0.37;;;28.90;40.40;;;;;;10982266;32;20027;-68
2022/07/10 09:00:19;;;;;;;1.75;0.82;;;29.10;40.50;;;;;;10982077;32;20053;-69
2022/07/10 09:06:21;;;;;;;4.05;0.70;;;29.20;39.70;;;;;;10981909;32;20322;-68
2022/07/10 09:12:24;;;;;;;4.47;0.95;;;29.30;38.70;;;;;;10984349;32;20018;-69
2022/07/10 09:18:26;;;;;;;2.67;1.20;;;29.20;38.00;;;;;;10984658;32;20072;-68
2022/07/10 09:24:38;;;;;;;4.00;1.85;;;29.30;37.00;;;;;;10984474;32;20390;-68
2022/07/10 09:30:41;;;;;;;3.03;1.87;;;29.30;36.00;;;;;;10981043;32;20377;-70
2022/07/10 09:36:44;;;;;;;1.33;0.93;;;29.40;35.90;;;;;;10982685;32;20019;-67
2022/07/10 09:42:48;;;;;;;1.30;0.77;;;29.50;35.70;;;;;;10970831;32;20023;-68
2022/07/10 09:49:28;;;;;;;0.60;0.57;;;29.60;35.80;;;;;;10980157;32;20053;-69
2022/07/10 09:55:35;;;;;;;3.58;1.35;;;29.80;36.00;;;;;;10790163;32;20432;-69
2022/07/10 10:01:39;;;;;;;;;;;29.90;35.50;;;;;;10791791;33;20024;-68
2022/07/10 10:07:42;;;;;;;1.67;1.08;;;29.90;35.00;;;;;;10790683;32;19979;-68
2022/07/10 10:13:44;;;;;;;1.33;0.90;;;30.00;35.00;;;;;;10790740;33;20055;-70
2022/07/10 10:26:09;;;;;;;5.30;0.90;;;30.40;35.30;;;;;;10789253;33;20405;-68
2022/07/10 10:32:11;;;;;;;0.80;0.50;;;30.60;35.00;;;;;;10981944;32;20019;-69
2022/07/10 10:38:15;;;;;;;1.08;0.85;;;30.80;34.90;;;;;;10978522;32;20387;-69
2022/07/10 10:44:17;;;;;;;2.17;1.00;;;31.10;34.80;;;;;;10979666;32;20053;-69
2022/07/10 10:50:56;;;;;;;2.20;1.08;;;31.30;34.00;;;;;;10980512;32;20030;-69
2022/07/10 10:57:18;;;;;;;0.75;0.60;;;31.10;33.90;;;;;;10789912;32;20063;-68
2022/07/10 11:03:23;;;;;;;1.73;0.77;;;31.00;34.20;;;;;;10787426;33;20071;-69
2022/07/10 11:09:28;;;;;;;1.70;0.90;;;31.20;34.20;;;;;;10786336;33;20066;-68
2022/07/10 11:15:36;;;;;;;0.88;0.85;;;31.40;33.50;;;;;;10787383;33;20068;-68
2022/07/10 11:21:49;;;;;;;;;;;31.60;33.30;;;;;;10787127;33;20028;-70
2022/07/10 11:28:12;;;;;;;1.45;0.68;;;32.00;34.30;;;;;;10791014;33;19927;-70
2022/07/10 11:34:14;;;;;;;1.25;0.80;;;31.70;33.00;;;;;;10973252;32;20049;-70
2022/07/10 11:40:16;;;;;;;1.50;0.82;;;31.40;33.30;;;;;;10963093;32;20022;-70
2022/07/10 11:46:24;;;;;;;1.65;0.80;;;31.80;33.20;;;;;;10976758;32;20018;-69
2022/07/10 11:52:26;;;;;;;2.47;0.62;;;32.20;33.10;;;;;;10963431;32;20007;-69
2022/07/10 11:58:28;;;;;;;1.83;1.02;;;32.80;32.80;;;;;;10966293;32;20026;-69
2022/07/10 12:04:31;;;;;;;0.80;0.80;;;33.00;31.60;;;;;;10977145;32;20123;-68
2022/07/10 12:10:34;;;;;;;1.30;0.93;;;33.10;31.70;;;;;;10975912;32;20052;-69
2022/07/10 12:16:37;;;;;;;2.97;1.27;;;33.50;31.50;;;;;;10976065;32;20019;-69
2022/07/10 12:22:39;;;;;;;1.95;0.57;;;33.80;30.90;;;;;;10976255;32;20049;-68
2022/07/10 12:28:53;;;;;;;1.42;0.60;;;33.70;30.90;;;;;;10979403;27;20042;-68
2022/07/10 12:34:58;;;;;;;4.30;1.67;;;33.90;31.20;;;;;;10977134;32;20034;-69
2022/07/10 12:41:13;;;;;;;0.95;0.60;;;34.10;31.00;;;;;;10975173;32;20050;-69
2022/07/10 12:47:20;;;;;;;0.82;0.57;;;33.60;31.50;;;;;;10975597;32;20433;-70
2022/07/10 12:53:22;;;;;;;0.62;0.52;;;33.40;32.20;;;;;;10961429;32;20049;-70
2022/07/10 12:59:24;;;;;;;4.65;0.57;;;33.70;32.00;;;;;;10974940;32;20041;-71
2022/07/10 13:05:28;;;;;;;1.50;0.70;;;33.80;32.10;;;;;;10974627;32;20048;-70
2022/07/10 13:11:31;;;;;;;0.90;0.65;;;33.80;32.10;;;;;;10975993;32;20062;-70
2022/07/10 13:17:33;;;;;;;1.65;1.08;;;33.50;32.40;;;;;;10977073;32;20030;-71
2022/07/10 13:23:35;;;;;;;0.75;0.57;;;33.20;32.90;;;;;;10974822;32;20034;-70
2022/07/10 13:29:38;;;;;;;0.80;0.70;;;32.90;33.10;;;;;;10961043;32;20034;-69
2022/07/10 13:35:41;;;;;;;1.10;0.57;;;32.50;33.20;;;;;;10982526;32;20049;-71
2022/07/10 13:41:43;;;;;;;1.25;0.55;;;32.40;33.50;;;;;;10984205;32;20383;-71
2022/07/10 13:47:45;;;;;;;3.03;0.88;;;32.60;33.60;;;;;;10981215;32;20030;-72
2022/07/10 13:53:47;;;;;;;1.37;0.60;;;32.60;35.30;;;;;;10947954;32;20038;-71
2022/07/10 13:59:49;;;;;;;2.80;1.00;;;32.50;36.60;;;;;;10953632;32;20031;-72
2022/07/10 14:05:51;;;;;;;5.35;1.00;;;32.70;38.20;;;;;;10975606;32;20389;-71
2022/07/10 14:11:54;;;;;;;4.93;0.90;;;32.50;40.20;;;;;;10965676;32;20030;-72
2022/07/10 14:17:57;;;;;;;0.95;0.60;;;32.50;40.40;;;;;;10979231;32;20034;-72
2022/07/10 14:23:59;;;;;;;0.60;0.55;;;32.50;41.00;;;;;;10980795;32;20039;-71
2022/07/10 14:30:01;;;;;;;2.95;0.90;;;32.50;40.80;;;;;;10980729;32;20070;-69
2022/07/10 14:36:04;;;;;;;12.80;0.93;;;32.40;41.10;;;;;;10969215;32;20030;-71
2022/07/10 14:42:06;;;;;;;1.77;0.73;;;32.30;40.90;;;;;;10968349;32;20023;-72
2022/07/10 14:48:08;;;;;;;2.20;0.65;;;32.10;41.90;;;;;;10967030;32;20053;-71
2022/07/10 14:54:11;;;;;;;5.82;1.08;;;31.80;42.80;;;;;;10940527;32;20259;-70
2022/07/10 15:00:13;;;;;;;1.58;0.77;;;31.80;43.20;;;;;;10940182;32;20034;-71
2022/07/10 15:06:15;;;;;;;1.77;0.70;;;31.70;43.20;;;;;;10939754;32;20399;-72
2022/07/10 15:12:20;;;;;;;3.00;1.02;;;31.60;43.20;;;;;;10969173;32;20402;-71
2022/07/10 15:18:22;;;;;;;4.40;1.00;;;31.60;43.40;;;;;;10977713;32;20027;-72
2022/07/10 15:24:25;;;;;;;1.27;0.50;;;31.80;43.30;;;;;;10977863;32;20023;-71
2022/07/10 15:30:27;;;;;;;1.15;0.95;;;31.90;43.10;;;;;;10978310;32;20054;-70
2022/07/10 15:36:30;;;;;;;5.78;0.85;;;32.00;43.30;;;;;;10964525;32;20049;-71
2022/07/10 15:42:32;;;;;;;3.97;1.15;;;32.10;43.20;;;;;;10976991;32;20069;-70
2022/07/10 15:48:36;;;;;;;2.20;0.88;;;32.00;43.70;;;;;;10979973;32;20022;-72
2022/07/10 15:54:39;;;;;;;2.30;0.70;;;31.90;43.20;;;;;;10976848;32;20022;-72
2022/07/10 16:00:41;;;;;;;3.10;0.65;;;31.80;43.60;;;;;;10977616;32;20077;-72
2022/07/10 16:06:44;;;;;;;4.10;0.52;;;31.80;44.60;;;;;;10975990;32;20042;-72
2022/07/10 16:12:46;;;;;;;2.28;0.65;;;31.80;44.00;;;;;;10975978;32;20057;-71
2022/07/10 16:18:52;;;;;;;1.80;0.70;;;31.90;44.10;;;;;;10930257;32;20433;-72
2022/07/10 16:31:15;;;;;;;3.45;0.88;;;31.80;44.30;;;;;;10938205;32;20023;-70
2022/07/10 16:37:19;;;;;;;0.80;0.50;;;31.60;44.60;;;;;;10939142;32;20342;-74
2022/07/10 16:43:21;;;;;;;3.03;0.85;;;31.30;44.70;;;;;;10942430;32;20481;-71
2022/07/10 16:49:24;;;;;;;2.65;0.70;;;31.40;44.00;;;;;;10941193;32;20027;-73
2022/07/10 16:55:27;;;;;;;1.08;0.70;;;31.60;44.60;;;;;;10924616;32;20035;-74
2022/07/10 17:01:29;;;;;;;1.37;0.80;;;31.60;44.90;;;;;;10941534;32;20429;-74
2022/07/10 17:07:32;;;;;;;2.03;0.70;;;31.60;44.80;;;;;;10948104;32;20065;-75
2022/07/10 17:13:34;;;;;;;2.20;0.77;;;31.60;44.60;;;;;;10979111;32;20031;-73
2022/07/10 17:19:37;;;;;;;3.00;1.35;;;31.60;45.00;;;;;;10982733;32;20061;-73
2022/07/10 17:25:40;;;;;;;0.65;0.40;;;31.60;44.50;;;;;;10977012;32;20042;-72
2022/07/10 17:31:42;;;;;;;1.37;0.73;;;31.60;44.50;;;;;;10983867;32;20189;-74
2022/07/10 17:37:44;;;;;;;0.93;0.73;;;31.50;44.50;;;;;;10972152;32;20027;-74
2022/07/10 17:43:47;;;;;;;3.20;0.90;;;31.60;44.50;;;;;;10971676;32;20052;-73
2022/07/10 17:49:50;;;;;;;2.55;0.88;;;31.60;44.90;;;;;;10985002;32;20319;-74
2022/07/10 17:55:52;;;;;;;1.20;0.60;;;31.30;45.30;;;;;;10984404;32;20058;-74
2022/07/10 18:01:54;;;;;;;1.67;0.80;;;32.00;44.40;;;;;;10951847;32;20045;-75
2022/07/10 18:07:56;;;;;;;4.72;1.27;;;32.90;43.10;;;;;;10946161;32;20049;-75
2022/07/10 18:13:59;;;;;;;1.83;0.75;;;32.80;43.70;;;;;;10941852;32;20058;-75
2022/07/10 18:20:01;;;;;;;2.95;0.80;;;32.00;44.80;;;;;;10945905;32;20391;-75
2022/07/10 18:26:04;;;;;;;1.37;0.55;;;31.50;45.80;;;;;;10946069;32;20045;-75
2022/07/10 18:32:07;;;;;;;2.33;0.95;;;31.10;46.70;;;;;;10945681;32;20026;-75
2022/07/10 18:38:09;;;;;;;0.70;0.50;;;30.90;46.70;;;;;;10945422;32;20023;-75
2022/07/10 18:44:11;;;;;;;0.52;0.50;;;30.70;47.00;;;;;;10945259;32;20050;-75
2022/07/10 18:50:13;;;;;;;3.80;0.77;;;30.50;47.30;;;;;;10945016;32;20027;-75
2022/07/10 18:56:18;;;;;;;1.60;0.57;;;30.40;47.50;;;;;;10944806;32;20023;-75
2022/07/10 19:02:20;;;;;;;1.40;0.37;;;30.30;47.60;;;;;;10944519;32;20045;-75
2022/07/10 19:08:22;;;;;;;0.70;0.32;;;30.30;47.60;;;;;;10944264;32;20089;-74
2022/07/10 19:14:25;;;;;;;0.55;0.50;;;30.10;47.80;;;;;;10944208;32;20042;-75
2022/07/10 19:20:28;;;;;;;0.40;0.40;;;30.00;47.90;;;;;;10939450;32;20035;-74
2022/07/10 19:26:31;;;;;;;0.90;0.68;;;29.80;48.00;;;;;;10943808;32;20031;-74
2022/07/10 19:32:33;;;;;;;0.40;0.22;;;29.70;48.20;;;;;;10942634;32;20429;-74
2022/07/10 19:38:36;;;;;;;0.93;0.43;;;29.60;48.50;;;;;;10943328;32;20045;-75
2022/07/10 19:44:41;;;;;;;0.28;0.28;;;29.40;48.70;;;;;;10942633;32;20335;-75
2022/07/10 19:50:43;;;;;;;1.83;0.65;;;29.40;48.80;;;;;;10942818;32;20057;-74
2022/07/10 19:56:45;;;;;;;0.35;0.35;;;29.30;49.00;;;;;;10974545;32;20042;-74
2022/07/10 20:02:47;;;;;;;2.05;0.62;;;29.30;49.10;;;;;;10965915;32;20382;-74
2022/07/10 20:08:50;;;;;;;1.37;0.60;;;29.20;49.30;;;;;;10957251;32;20046;-75
2022/07/10 20:14:52;;;;;;;1.45;0.80;;;29.20;49.40;;;;;;10938045;32;20383;-74
2022/07/10 20:20:54;;;;;;;0.62;0.40;;;29.20;49.60;;;;;;10942258;32;20023;-74
2022/07/10 20:26:56;;;;;;;0.80;0.60;;;29.00;49.80;;;;;;10928619;32;20023;-74
2022/07/10 20:32:58;;;;;;;0.52;0.47;;;29.00;50.10;;;;;;11012689;27;20045;-74
2022/07/10 20:39:00;;;;;;;7.93;1.42;;;29.00;50.30;;;;;;11018366;32;20015;-74
2022/07/10 20:45:03;;;;;;;1.77;1.02;;;29.00;50.40;;;;;;11012953;32;20350;-74
2022/07/10 20:51:05;;;;;;;5.07;1.20;;;29.00;50.70;;;;;;11024014;32;20049;-74
2022/07/10 20:57:07;;;;;;;4.10;1.17;;;28.90;50.90;;;;;;11024846;32;20045;-74
2022/07/10 21:03:09;;;;;;;0.85;0.60;;;28.80;51.00;;;;;;11024924;32;20038;-74
2022/07/10 21:09:11;;;;;;;0.93;0.80;;;28.80;51.20;;;;;;11020177;32;20018;-74
2022/07/10 21:15:13;;;;;;;0.60;0.40;;;28.80;51.30;;;;;;11024431;32;20041;-75
2022/07/10 21:21:17;;;;;;;1.27;0.80;;;28.70;52.20;;;;;;11010612;32;20048;-74
2022/07/10 21:27:19;;;;;;;1.77;0.98;;;28.60;52.70;;;;;;11010250;32;20019;-74
2022/07/10 21:33:21;;;;;;;1.33;0.90;;;28.60;52.60;;;;;;11023421;32;20018;-74
2022/07/10 21:39:23;;;;;;;1.42;1.20;;;28.60;52.50;;;;;;11023400;32;20022;-74
2022/07/10 21:45:25;;;;;;;6.90;1.10;;;28.60;52.80;;;;;;11023272;32;20006;-74
2022/07/10 21:51:27;;;;;;;2.87;1.02;;;28.50;53.30;;;;;;11022144;32;20053;-74
2022/07/10 21:57:32;;;;;;;2.83;1.05;;;28.50;53.60;;;;;;11022802;32;20040;-74
2022/07/10 22:03:34;;;;;;;1.52;0.60;;;28.40;53.90;;;;;;11018680;32;20052;-74
2022/07/10 22:09:36;;;;;;;1.05;0.70;;;28.30;54.20;;;;;;11008760;32;20022;-74
2022/07/10 22:15:38;;;;;;;3.28;1.37;;;28.30;54.30;;;;;;11022227;32;20037;-74
2022/07/10 22:21:41;;;;;;;1.83;1.23;;;28.30;54.60;;;;;;11021917;32;20436;-74
2022/07/10 22:27:43;;;;;;;0.95;0.70;;;28.30;54.60;;;;;;11021465;32;20065;-74
2022/07/10 22:33:46;;;;;;;1.77;1.12;;;28.20;54.70;;;;;;11021485;32;20314;-74
2022/07/10 22:39:48;;;;;;;1.12;0.80;;;28.10;54.70;;;;;;11007788;32;20022;-75
2022/07/10 22:45:50;;;;;;;2.87;1.23;;;28.10;54.80;;;;;;11021186;32;20023;-75
2022/07/10 22:51:54;;;;;;;2.25;1.12;;;28.00;55.20;;;;;;11020765;32;20063;-74
2022/07/10 22:57:56;;;;;;;2.10;0.90;;;27.90;55.40;;;;;;11020396;32;20040;-74
2022/07/10 23:03:58;;;;;;;2.45;1.12;;;27.90;55.40;;;;;;11020210;32;20350;-74
2022/07/10 23:10:00;;;;;;;1.10;0.80;;;27.80;55.80;;;;;;11020102;32;20022;-76
2022/07/10 23:16:02;;;;;;;1.48;0.60;;;27.80;56.20;;;;;;11006233;32;20076;-74
2022/07/10 23:22:05;;;;;;;1.25;0.75;;;27.70;56.50;;;;;;11019771;32;20014;-74
2022/07/10 23:28:07;;;;;;;0.60;0.60;;;27.70;56.50;;;;;;11019432;32;20057;-74
2022/07/10 23:34:09;;;;;;;3.03;1.17;;;27.70;56.20;;;;;;11019308;32;20050;-74
2022/07/10 23:40:12;;;;;;;1.20;1.08;;;27.70;56.10;;;;;;11019049;32;20053;-74
2022/07/10 23:46:14;;;;;;;1.67;0.98;;;27.60;56.10;;;;;;11016017;32;20425;-75
2022/07/10 23:52:16;;;;;;;2.85;1.10;;;27.60;56.30;;;;;;11018802;32;20330;-74
2022/07/10 23:58:18;;;;;;;4.05;1.00;;;27.50;56.70;;;;;;11018662;32;20037;-74
